Saint Marys, Canada
Current Conditions -  °F | °C
As of 7:00 PM on Monday 22 Dec 2014 (Local Time) from CYXU Reporting Station
Broken Clouds Broken Clouds  
Wind Chill: 22°   Ceiling: 22000
Heat Index: 32°   Visibility: 10mi
Dew Point: 28°   Wind: 14mph
Humidity: 87%   Direction: 80°E
Pressure: 29.99"   Gusts: NA
Location:  43.25°N, 81.13°W
Report Text: CYXU 230000Z 08012KT 10SM BKN220 M00/M02 A2999 RMK CI7 SLP167
Loading
Personal Weather Stations






























Interactive Weather Map New forecast layout! Learn more

10-Day Weather Forecast

Advertisements
Track Severe Weather on mobile